sensor_id;sensor_type;location;lat;lon;timestamp;temperature;humidity
14095;DHT22;18096;48.142;16.290;2024-02-23T00:00:27;8.60;99.90
14095;DHT22;18096;48.142;16.290;2024-02-23T00:02:52;8.60;99.90
14095;DHT22;18096;48.142;16.290;2024-02-23T00:05:19;8.60;99.90
14095;DHT22;18096;48.142;16.290;2024-02-23T00:07:45;8.60;99.90
14095;DHT22;18096;48.142;16.290;2024-02-23T00:10:11;8.60;99.90
14095;DHT22;18096;48.142;16.290;2024-02-23T00:12:37;8.70;99.90
14095;DHT22;18096;48.142;16.290;2024-02-23T00:17:30;8.60;99.90
14095;DHT22;18096;48.142;16.290;2024-02-23T00:19:55;8.70;99.90
14095;DHT22;18096;48.142;16.290;2024-02-23T00:22:21;8.70;99.90
14095;DHT22;18096;48.142;16.290;2024-02-23T00:24:47;8.70;99.90
14095;DHT22;18096;48.142;16.290;2024-02-23T00:27:12;8.70;99.90
14095;DHT22;18096;48.142;16.290;2024-02-23T00:29:38;8.70;99.90
14095;DHT22;18096;48.142;16.290;2024-02-23T00:32:04;8.70;99.90
14095;DHT22;18096;48.142;16.290;2024-02-23T00:34:29;8.70;99.90
14095;DHT22;18096;48.142;16.290;2024-02-23T00:36:57;8.70;99.90
14095;DHT22;18096;48.142;16.290;2024-02-23T00:39:23;8.70;99.90
14095;DHT22;18096;48.142;16.290;2024-02-23T00:41:49;8.70;99.90
14095;DHT22;18096;48.142;16.290;2024-02-23T00:44:14;8.80;99.90
14095;DHT22;18096;48.142;16.290;2024-02-23T00:46:40;8.70;99.90
14095;DHT22;18096;48.142;16.290;2024-02-23T00:49:06;8.60;99.90
14095;DHT22;18096;48.142;16.290;2024-02-23T00:51:32;8.70;99.90
14095;DHT22;18096;48.142;16.290;2024-02-23T00:53:57;8.60;99.90
14095;DHT22;18096;48.142;16.290;2024-02-23T00:56:23;8.60;99.90
14095;DHT22;18096;48.142;16.290;2024-02-23T01:01:16;8.70;99.90
14095;DHT22;18096;48.142;16.290;2024-02-23T01:03:42;8.60;99.90
14095;DHT22;18096;48.142;16.290;2024-02-23T01:06:08;8.60;99.90
14095;DHT22;18096;48.142;16.290;2024-02-23T01:08:33;8.60;99.90
14095;DHT22;18096;48.142;16.290;2024-02-23T01:10:59;8.60;99.90
14095;DHT22;18096;48.142;16.290;2024-02-23T01:13:25;8.60;99.90
14095;DHT22;18096;48.142;16.290;2024-02-23T01:15:51;8.70;99.90
14095;DHT22;18096;48.142;16.290;2024-02-23T01:18:19;8.70;99.90
14095;DHT22;18096;48.142;16.290;2024-02-23T01:20:44;8.70;99.90
14095;DHT22;18096;48.142;16.290;2024-02-23T01:23:10;8.70;99.90
14095;DHT22;18096;48.142;16.290;2024-02-23T01:25:36;8.70;99.90
14095;DHT22;18096;48.142;16.290;2024-02-23T01:28:03;8.60;99.90
14095;DHT22;18096;48.142;16.290;2024-02-23T01:30:28;8.70;99.90
14095;DHT22;18096;48.142;16.290;2024-02-23T01:32:54;8.60;99.90
14095;DHT22;18096;48.142;16.290;2024-02-23T01:35:20;8.60;99.90
14095;DHT22;18096;48.142;16.290;2024-02-23T01:37:45;8.60;99.90
14095;DHT22;18096;48.142;16.290;2024-02-23T01:40:11;8.60;99.90
14095;DHT22;18096;48.142;16.290;2024-02-23T01:42:38;8.60;99.90
14095;DHT22;18096;48.142;16.290;2024-02-23T01:45:04;8.60;99.90
14095;DHT22;18096;48.142;16.290;2024-02-23T01:47:30;8.60;99.90
14095;DHT22;18096;48.142;16.290;2024-02-23T01:49:57;8.60;99.90
14095;DHT22;18096;48.142;16.290;2024-02-23T01:52:24;8.60;99.90
14095;DHT22;18096;48.142;16.290;2024-02-23T01:54:50;8.60;99.90
14095;DHT22;18096;48.142;16.290;2024-02-23T01:57:16;8.60;99.90
14095;DHT22;18096;48.142;16.290;2024-02-23T01:59:42;8.60;99.90
14095;DHT22;18096;48.142;16.290;2024-02-23T02:02:08;8.60;99.90
14095;DHT22;18096;48.142;16.290;2024-02-23T02:04:34;8.60;99.90
14095;DHT22;18096;48.142;16.290;2024-02-23T02:07:00;8.60;99.90
14095;DHT22;18096;48.142;16.290;2024-02-23T02:09:26;8.60;99.90
14095;DHT22;18096;48.142;16.290;2024-02-23T02:11:52;8.60;99.90
14095;DHT22;18096;48.142;16.290;2024-02-23T02:14:18;8.60;99.90
14095;DHT22;18096;48.142;16.290;2024-02-23T02:16:44;8.50;99.90
14095;DHT22;18096;48.142;16.290;2024-02-23T02:19:13;8.50;99.90
14095;DHT22;18096;48.142;16.290;2024-02-23T02:21:40;8.50;99.90
14095;DHT22;18096;48.142;16.290;2024-02-23T02:24:06;8.50;99.90
14095;DHT22;18096;48.142;16.290;2024-02-23T02:28:58;8.50;99.90
14095;DHT22;18096;48.142;16.290;2024-02-23T02:31:24;8.50;99.90
14095;DHT22;18096;48.142;16.290;2024-02-23T02:33:50;8.60;99.90
14095;DHT22;18096;48.142;16.290;2024-02-23T02:36:16;8.60;99.90
14095;DHT22;18096;48.142;16.290;2024-02-23T02:38:41;8.50;99.90
14095;DHT22;18096;48.142;16.290;2024-02-23T02:41:08;8.50;99.90
14095;DHT22;18096;48.142;16.290;2024-02-23T02:43:33;8.50;99.90
14095;DHT22;18096;48.142;16.290;2024-02-23T02:45:59;8.50;99.90
14095;DHT22;18096;48.142;16.290;2024-02-23T02:48:25;8.50;99.90
14095;DHT22;18096;48.142;16.290;2024-02-23T02:50:51;8.50;99.90
14095;DHT22;18096;48.142;16.290;2024-02-23T02:53:17;8.50;99.90
14095;DHT22;18096;48.142;16.290;2024-02-23T02:55:43;8.50;99.90
14095;DHT22;18096;48.142;16.290;2024-02-23T02:58:12;8.50;99.90
14095;DHT22;18096;48.142;16.290;2024-02-23T03:00:38;8.50;99.90
14095;DHT22;18096;48.142;16.290;2024-02-23T03:03:04;8.50;99.90
14095;DHT22;18096;48.142;16.290;2024-02-23T03:05:30;8.50;99.90
14095;DHT22;18096;48.142;16.290;2024-02-23T03:07:55;8.50;99.90
14095;DHT22;18096;48.142;16.290;2024-02-23T03:10:21;8.50;99.90
14095;DHT22;18096;48.142;16.290;2024-02-23T03:12:46;8.50;99.90
14095;DHT22;18096;48.142;16.290;2024-02-23T03:15:12;8.50;99.90
14095;DHT22;18096;48.142;16.290;2024-02-23T03:17:38;8.50;99.90
14095;DHT22;18096;48.142;16.290;2024-02-23T03:20:04;8.50;99.90
14095;DHT22;18096;48.142;16.290;2024-02-23T03:22:37;8.50;99.90
14095;DHT22;18096;48.142;16.290;2024-02-23T03:25:03;8.50;99.90
14095;DHT22;18096;48.142;16.290;2024-02-23T03:30:03;8.50;99.90
14095;DHT22;18096;48.142;16.290;2024-02-23T03:32:28;8.50;99.90
14095;DHT22;18096;48.142;16.290;2024-02-23T03:34:56;8.40;99.90
14095;DHT22;18096;48.142;16.290;2024-02-23T03:39:48;8.40;99.90
14095;DHT22;18096;48.142;16.290;2024-02-23T03:42:14;8.50;99.90
14095;DHT22;18096;48.142;16.290;2024-02-23T03:47:08;8.50;99.90
14095;DHT22;18096;48.142;16.290;2024-02-23T03:51:59;8.40;99.90
14095;DHT22;18096;48.142;16.290;2024-02-23T03:54:25;8.50;99.90
14095;DHT22;18096;48.142;16.290;2024-02-23T03:56:51;8.40;99.90
14095;DHT22;18096;48.142;16.290;2024-02-23T04:01:42;8.50;99.90
14095;DHT22;18096;48.142;16.290;2024-02-23T04:04:09;8.50;99.90
14095;DHT22;18096;48.142;16.290;2024-02-23T04:06:35;8.60;99.90
14095;DHT22;18096;48.142;16.290;2024-02-23T04:09:01;8.70;99.90
14095;DHT22;18096;48.142;16.290;2024-02-23T04:11:30;8.80;99.90
14095;DHT22;18096;48.142;16.290;2024-02-23T04:13:56;8.80;99.90
14095;DHT22;18096;48.142;16.290;2024-02-23T04:16:25;8.80;99.90
14095;DHT22;18096;48.142;16.290;2024-02-23T04:18:51;8.80;99.90
14095;DHT22;18096;48.142;16.290;2024-02-23T04:21:17;8.80;99.90
14095;DHT22;18096;48.142;16.290;2024-02-23T04:23:46;8.70;99.90
14095;DHT22;18096;48.142;16.290;2024-02-23T04:26:12;8.80;99.90
14095;DHT22;18096;48.142;16.290;2024-02-23T04:28:41;8.80;99.90
14095;DHT22;18096;48.142;16.290;2024-02-23T04:31:10;8.70;99.90
14095;DHT22;18096;48.142;16.290;2024-02-23T04:33:37;8.80;99.90
14095;DHT22;18096;48.142;16.290;2024-02-23T04:36:03;8.80;99.90
14095;DHT22;18096;48.142;16.290;2024-02-23T04:38:32;8.80;99.90
14095;DHT22;18096;48.142;16.290;2024-02-23T04:41:02;8.80;99.90
14095;DHT22;18096;48.142;16.290;2024-02-23T04:43:28;8.80;99.90
14095;DHT22;18096;48.142;16.290;2024-02-23T04:45:54;8.80;99.90
14095;DHT22;18096;48.142;16.290;2024-02-23T04:48:19;8.80;99.90
14095;DHT22;18096;48.142;16.290;2024-02-23T04:50:45;8.80;99.90
14095;DHT22;18096;48.142;16.290;2024-02-23T04:53:11;8.70;99.90
14095;DHT22;18096;48.142;16.290;2024-02-23T04:55:36;8.70;99.90
14095;DHT22;18096;48.142;16.290;2024-02-23T04:58:02;8.70;99.90
14095;DHT22;18096;48.142;16.290;2024-02-23T05:00:28;8.70;99.90
14095;DHT22;18096;48.142;16.290;2024-02-23T05:02:59;8.70;99.90
14095;DHT22;18096;48.142;16.290;2024-02-23T05:05:25;8.70;99.90
14095;DHT22;18096;48.142;16.290;2024-02-23T05:07:51;8.70;99.90
14095;DHT22;18096;48.142;16.290;2024-02-23T05:10:16;8.70;99.90
14095;DHT22;18096;48.142;16.290;2024-02-23T05:12:42;8.70;99.90
14095;DHT22;18096;48.142;16.290;2024-02-23T05:15:08;8.70;99.90
14095;DHT22;18096;48.142;16.290;2024-02-23T05:17:34;8.70;99.90
14095;DHT22;18096;48.142;16.290;2024-02-23T05:19:59;8.60;99.90
14095;DHT22;18096;48.142;16.290;2024-02-23T05:22:25;8.70;99.90
14095;DHT22;18096;48.142;16.290;2024-02-23T05:24:51;8.70;99.90
14095;DHT22;18096;48.142;16.290;2024-02-23T05:27:16;8.70;99.90
14095;DHT22;18096;48.142;16.290;2024-02-23T05:29:42;8.80;99.90
14095;DHT22;18096;48.142;16.290;2024-02-23T05:32:07;8.70;99.90
14095;DHT22;18096;48.142;16.290;2024-02-23T05:34:33;8.70;99.90
14095;DHT22;18096;48.142;16.290;2024-02-23T05:37:00;8.70;99.90
14095;DHT22;18096;48.142;16.290;2024-02-23T05:39:27;8.70;99.90
14095;DHT22;18096;48.142;16.290;2024-02-23T05:46:46;8.70;99.90
14095;DHT22;18096;48.142;16.290;2024-02-23T05:49:12;8.70;99.90
14095;DHT22;18096;48.142;16.290;2024-02-23T05:51:37;8.70;99.90
14095;DHT22;18096;48.142;16.290;2024-02-23T05:54:03;8.70;99.90
14095;DHT22;18096;48.142;16.290;2024-02-23T05:56:29;8.70;99.90
14095;DHT22;18096;48.142;16.290;2024-02-23T05:58:54;9.20;99.90
14095;DHT22;18096;48.142;16.290;2024-02-23T06:01:20;8.80;99.90
14095;DHT22;18096;48.142;16.290;2024-02-23T06:03:46;8.80;99.90
14095;DHT22;18096;48.142;16.290;2024-02-23T06:06:12;8.80;99.90
14095;DHT22;18096;48.142;16.290;2024-02-23T06:08:38;8.80;99.90
14095;DHT22;18096;48.142;16.290;2024-02-23T06:11:03;8.80;99.90
14095;DHT22;18096;48.142;16.290;2024-02-23T06:13:30;8.90;99.90
14095;DHT22;18096;48.142;16.290;2024-02-23T06:15:56;8.90;99.90
14095;DHT22;18096;48.142;16.290;2024-02-23T06:18:21;9.00;99.90
14095;DHT22;18096;48.142;16.290;2024-02-23T06:20:48;9.10;99.90
14095;DHT22;18096;48.142;16.290;2024-02-23T06:23:15;9.10;99.90
14095;DHT22;18096;48.142;16.290;2024-02-23T06:25:41;9.20;99.90
14095;DHT22;18096;48.142;16.290;2024-02-23T06:28:06;9.20;99.90
14095;DHT22;18096;48.142;16.290;2024-02-23T06:30:32;9.10;99.90
14095;DHT22;18096;48.142;16.290;2024-02-23T06:52:26;9.00;99.90
14095;DHT22;18096;48.142;16.290;2024-02-23T06:54:52;9.00;99.90
14095;DHT22;18096;48.142;16.290;2024-02-23T06:57:18;9.20;99.90
14095;DHT22;18096;48.142;16.290;2024-02-23T07:02:09;9.40;99.90
14095;DHT22;18096;48.142;16.290;2024-02-23T07:04:35;9.40;99.90
14095;DHT22;18096;48.142;16.290;2024-02-23T07:09:33;9.30;99.90
14095;DHT22;18096;48.142;16.290;2024-02-23T07:14:24;9.30;99.90
14095;DHT22;18096;48.142;16.290;2024-02-23T07:16:50;9.30;99.90
14095;DHT22;18096;48.142;16.290;2024-02-23T07:19:18;9.30;99.90
14095;DHT22;18096;48.142;16.290;2024-02-23T07:21:45;9.30;99.90
14095;DHT22;18096;48.142;16.290;2024-02-23T07:26:37;9.30;99.90
14095;DHT22;18096;48.142;16.290;2024-02-23T07:29:03;9.30;99.90
14095;DHT22;18096;48.142;16.290;2024-02-23T07:31:29;9.30;99.90
14095;DHT22;18096;48.142;16.290;2024-02-23T07:33:54;9.30;99.90
14095;DHT22;18096;48.142;16.290;2024-02-23T07:36:20;9.30;99.90
14095;DHT22;18096;48.142;16.290;2024-02-23T07:38:47;9.30;99.90
14095;DHT22;18096;48.142;16.290;2024-02-23T07:46:05;9.40;99.90
14095;DHT22;18096;48.142;16.290;2024-02-23T08:00:44;9.40;99.90
14095;DHT22;18096;48.142;16.290;2024-02-23T08:03:10;9.40;99.90
14095;DHT22;18096;48.142;16.290;2024-02-23T08:05:36;9.40;99.90
14095;DHT22;18096;48.142;16.290;2024-02-23T08:08:02;9.40;99.90
14095;DHT22;18096;48.142;16.290;2024-02-23T08:10:28;9.30;99.90
14095;DHT22;18096;48.142;16.290;2024-02-23T08:19:55;9.30;99.90
14095;DHT22;18096;48.142;16.290;2024-02-23T08:22:21;9.30;99.90
14095;DHT22;18096;48.142;16.290;2024-02-23T08:28:13;9.50;99.90
14095;DHT22;18096;48.142;16.290;2024-02-23T08:30:39;9.70;99.90
14095;DHT22;18096;48.142;16.290;2024-02-23T08:33:05;9.80;99.90
14095;DHT22;18096;48.142;16.290;2024-02-23T08:35:31;9.90;99.90
14095;DHT22;18096;48.142;16.290;2024-02-23T08:37:57;10.00;99.90
14095;DHT22;18096;48.142;16.290;2024-02-23T08:40:23;10.00;99.90
14095;DHT22;18096;48.142;16.290;2024-02-23T08:42:48;10.00;99.90
14095;DHT22;18096;48.142;16.290;2024-02-23T08:45:15;10.00;99.90
14095;DHT22;18096;48.142;16.290;2024-02-23T08:47:41;10.00;99.90
14095;DHT22;18096;48.142;16.290;2024-02-23T08:50:13;10.20;99.90
14095;DHT22;18096;48.142;16.290;2024-02-23T08:52:47;10.30;99.90
14095;DHT22;18096;48.142;16.290;2024-02-23T08:57:39;10.30;99.90
14095;DHT22;18096;48.142;16.290;2024-02-23T09:00:05;10.20;99.90
14095;DHT22;18096;48.142;16.290;2024-02-23T09:05:04;10.30;99.90
14095;DHT22;18096;48.142;16.290;2024-02-23T09:09:56;10.20;99.90
14095;DHT22;18096;48.142;16.290;2024-02-23T09:14:49;10.20;99.90
14095;DHT22;18096;48.142;16.290;2024-02-23T09:19:40;10.10;99.90
14095;DHT22;18096;48.142;16.290;2024-02-23T09:24:32;10.10;99.90
14095;DHT22;18096;48.142;16.290;2024-02-23T09:26:58;10.20;99.90
14095;DHT22;18096;48.142;16.290;2024-02-23T09:29:24;10.20;99.90
14095;DHT22;18096;48.142;16.290;2024-02-23T09:34:15;10.20;99.90
14095;DHT22;18096;48.142;16.290;2024-02-23T09:56:17;10.10;99.90
14095;DHT22;18096;48.142;16.290;2024-02-23T09:58:46;10.10;99.90
14095;DHT22;18096;48.142;16.290;2024-02-23T10:01:20;10.10;99.90
14095;DHT22;18096;48.142;16.290;2024-02-23T10:03:51;10.10;99.90
14095;DHT22;18096;48.142;16.290;2024-02-23T10:06:17;10.10;99.90
14095;DHT22;18096;48.142;16.290;2024-02-23T10:08:43;10.20;99.90
14095;DHT22;18096;48.142;16.290;2024-02-23T10:11:08;10.20;99.90
14095;DHT22;18096;48.142;16.290;2024-02-23T10:13:34;10.30;99.90
14095;DHT22;18096;48.142;16.290;2024-02-23T10:16:00;10.20;99.90
14095;DHT22;18096;48.142;16.290;2024-02-23T10:18:25;10.30;99.90
14095;DHT22;18096;48.142;16.290;2024-02-23T10:20:52;10.20;99.90
14095;DHT22;18096;48.142;16.290;2024-02-23T10:23:19;8.70;99.90
14095;DHT22;18096;48.142;16.290;2024-02-23T10:25:45;10.20;99.90
14095;DHT22;18096;48.142;16.290;2024-02-23T10:33:05;10.30;99.90
14095;DHT22;18096;48.142;16.290;2024-02-23T10:35:32;10.30;99.90
14095;DHT22;18096;48.142;16.290;2024-02-23T10:38:01;10.30;99.90
14095;DHT22;18096;48.142;16.290;2024-02-23T10:40:30;10.40;99.90
14095;DHT22;18096;48.142;16.290;2024-02-23T10:43:00;10.40;99.90
14095;DHT22;18096;48.142;16.290;2024-02-23T10:45:29;10.50;99.90
14095;DHT22;18096;48.142;16.290;2024-02-23T10:47:55;10.40;99.90
14095;DHT22;18096;48.142;16.290;2024-02-23T10:50:23;10.50;99.90
14095;DHT22;18096;48.142;16.290;2024-02-23T10:52:50;10.60;99.90
14095;DHT22;18096;48.142;16.290;2024-02-23T10:55:16;10.60;99.90
14095;DHT22;18096;48.142;16.290;2024-02-23T10:57:43;10.60;99.90
14095;DHT22;18096;48.142;16.290;2024-02-23T11:00:10;10.70;99.90
14095;DHT22;18096;48.142;16.290;2024-02-23T11:02:41;10.70;99.90
14095;DHT22;18096;48.142;16.290;2024-02-23T11:05:09;10.70;99.90
14095;DHT22;18096;48.142;16.290;2024-02-23T11:07:40;10.70;99.90
14095;DHT22;18096;48.142;16.290;2024-02-23T11:10:07;10.70;99.90
14095;DHT22;18096;48.142;16.290;2024-02-23T11:19:55;10.40;99.90
14095;DHT22;18096;48.142;16.290;2024-02-23T11:22:32;10.40;99.90
14095;DHT22;18096;48.142;16.290;2024-02-23T11:25:06;10.40;99.90
14095;DHT22;18096;48.142;16.290;2024-02-23T11:27:34;10.40;99.90
14095;DHT22;18096;48.142;16.290;2024-02-23T11:30:05;10.30;99.90
14095;DHT22;18096;48.142;16.290;2024-02-23T11:32:42;10.30;99.90
14095;DHT22;18096;48.142;16.290;2024-02-23T11:35:10;10.30;99.90
14095;DHT22;18096;48.142;16.290;2024-02-23T11:37:52;10.30;99.90
14095;DHT22;18096;48.142;16.290;2024-02-23T11:40:25;10.20;99.90
14095;DHT22;18096;48.142;16.290;2024-02-23T11:42:51;10.20;99.90
14095;DHT22;18096;48.142;16.290;2024-02-23T11:45:18;10.20;99.90
14095;DHT22;18096;48.142;16.290;2024-02-23T11:47:43;10.20;99.90
14095;DHT22;18096;48.142;16.290;2024-02-23T11:50:10;10.20;99.90
14095;DHT22;18096;48.142;16.290;2024-02-23T11:52:39;10.20;99.90
14095;DHT22;18096;48.142;16.290;2024-02-23T11:55:05;10.20;99.90
14095;DHT22;18096;48.142;16.290;2024-02-23T11:57:34;10.30;99.90
14095;DHT22;18096;48.142;16.290;2024-02-23T12:00:02;10.30;99.90
14095;DHT22;18096;48.142;16.290;2024-02-23T12:02:28;10.40;99.90
14095;DHT22;18096;48.142;16.290;2024-02-23T12:04:54;10.40;99.90
14095;DHT22;18096;48.142;16.290;2024-02-23T12:07:19;10.50;99.90
14095;DHT22;18096;48.142;16.290;2024-02-23T12:09:47;10.50;99.90
14095;DHT22;18096;48.142;16.290;2024-02-23T12:12:13;10.50;99.90
14095;DHT22;18096;48.142;16.290;2024-02-23T12:14:42;10.50;99.90
14095;DHT22;18096;48.142;16.290;2024-02-23T12:17:09;10.40;99.90
14095;DHT22;18096;48.142;16.290;2024-02-23T12:19:41;10.40;99.90
14095;DHT22;18096;48.142;16.290;2024-02-23T12:22:07;10.40;99.90
14095;DHT22;18096;48.142;16.290;2024-02-23T12:24:34;10.40;99.90
14095;DHT22;18096;48.142;16.290;2024-02-23T12:27:00;10.40;99.90
14095;DHT22;18096;48.142;16.290;2024-02-23T12:32:03;10.30;99.90
14095;DHT22;18096;48.142;16.290;2024-02-23T12:34:29;10.20;99.90
14095;DHT22;18096;48.142;16.290;2024-02-23T12:36:55;10.20;99.90
14095;DHT22;18096;48.142;16.290;2024-02-23T12:39:21;10.10;99.90
14095;DHT22;18096;48.142;16.290;2024-02-23T12:41:47;10.10;99.90
14095;DHT22;18096;48.142;16.290;2024-02-23T12:44:12;10.10;99.90
14095;DHT22;18096;48.142;16.290;2024-02-23T12:46:38;10.10;99.90
14095;DHT22;18096;48.142;16.290;2024-02-23T12:49:04;10.00;99.90
14095;DHT22;18096;48.142;16.290;2024-02-23T12:51:29;10.00;99.90
14095;DHT22;18096;48.142;16.290;2024-02-23T12:53:55;9.90;99.90
14095;DHT22;18096;48.142;16.290;2024-02-23T12:56:21;9.90;99.90
14095;DHT22;18096;48.142;16.290;2024-02-23T12:58:46;9.90;99.90
14095;DHT22;18096;48.142;16.290;2024-02-23T13:01:12;9.90;99.90
14095;DHT22;18096;48.142;16.290;2024-02-23T13:03:39;9.90;99.90
14095;DHT22;18096;48.142;16.290;2024-02-23T13:06:07;9.80;99.90
14095;DHT22;18096;48.142;16.290;2024-02-23T13:08:33;9.80;99.90
14095;DHT22;18096;48.142;16.290;2024-02-23T13:11:00;9.80;99.90
14095;DHT22;18096;48.142;16.290;2024-02-23T13:13:26;9.90;99.90
14095;DHT22;18096;48.142;16.290;2024-02-23T13:15:53;9.80;99.90
14095;DHT22;18096;48.142;16.290;2024-02-23T13:18:19;9.80;99.90
14095;DHT22;18096;48.142;16.290;2024-02-23T13:20:45;9.90;99.90
14095;DHT22;18096;48.142;16.290;2024-02-23T13:23:11;9.90;99.90
14095;DHT22;18096;48.142;16.290;2024-02-23T13:25:39;9.90;99.90
14095;DHT22;18096;48.142;16.290;2024-02-23T13:28:05;9.80;99.90
14095;DHT22;18096;48.142;16.290;2024-02-23T13:30:31;9.80;99.90
14095;DHT22;18096;48.142;16.290;2024-02-23T13:32:57;9.80;99.90
14095;DHT22;18096;48.142;16.290;2024-02-23T13:35:23;9.80;99.90
14095;DHT22;18096;48.142;16.290;2024-02-23T13:37:49;9.80;99.90
14095;DHT22;18096;48.142;16.290;2024-02-23T13:40:15;9.80;99.90
14095;DHT22;18096;48.142;16.290;2024-02-23T13:42:41;9.80;99.90
14095;DHT22;18096;48.142;16.290;2024-02-23T13:45:07;9.80;99.90
14095;DHT22;18096;48.142;16.290;2024-02-23T13:47:34;9.80;99.90
14095;DHT22;18096;48.142;16.290;2024-02-23T13:50:01;9.80;99.90
14095;DHT22;18096;48.142;16.290;2024-02-23T13:52:27;10.00;99.90
14095;DHT22;18096;48.142;16.290;2024-02-23T13:54:52;10.30;99.90
14095;DHT22;18096;48.142;16.290;2024-02-23T13:57:18;10.40;99.90
14095;DHT22;18096;48.142;16.290;2024-02-23T13:59:44;10.40;99.90
14095;DHT22;18096;48.142;16.290;2024-02-23T14:02:10;10.50;99.90
14095;DHT22;18096;48.142;16.290;2024-02-23T14:04:35;10.40;99.90
14095;DHT22;18096;48.142;16.290;2024-02-23T14:07:01;10.40;99.90
14095;DHT22;18096;48.142;16.290;2024-02-23T14:09:27;10.30;99.90
14095;DHT22;18096;48.142;16.290;2024-02-23T14:11:52;10.30;99.90
14095;DHT22;18096;48.142;16.290;2024-02-23T14:14:26;10.20;99.90
14095;DHT22;18096;48.142;16.290;2024-02-23T14:16:51;10.20;99.90
14095;DHT22;18096;48.142;16.290;2024-02-23T14:19:17;10.10;99.90
14095;DHT22;18096;48.142;16.290;2024-02-23T14:21:45;10.10;99.90
14095;DHT22;18096;48.142;16.290;2024-02-23T14:24:12;10.00;99.90
14095;DHT22;18096;48.142;16.290;2024-02-23T14:26:38;10.00;99.90
14095;DHT22;18096;48.142;16.290;2024-02-23T14:29:03;10.00;99.90
14095;DHT22;18096;48.142;16.290;2024-02-23T14:31:29;9.90;99.90
14095;DHT22;18096;48.142;16.290;2024-02-23T14:33:54;9.90;99.90
14095;DHT22;18096;48.142;16.290;2024-02-23T14:36:20;9.90;99.90
14095;DHT22;18096;48.142;16.290;2024-02-23T14:38:47;9.80;99.90
14095;DHT22;18096;48.142;16.290;2024-02-23T14:41:12;9.80;99.90
14095;DHT22;18096;48.142;16.290;2024-02-23T14:43:38;9.80;99.90
14095;DHT22;18096;48.142;16.290;2024-02-23T14:46:04;9.80;99.90
14095;DHT22;18096;48.142;16.290;2024-02-23T14:48:30;9.80;99.90
14095;DHT22;18096;48.142;16.290;2024-02-23T14:50:56;9.70;99.90
14095;DHT22;18096;48.142;16.290;2024-02-23T14:53:23;9.80;99.90
14095;DHT22;18096;48.142;16.290;2024-02-23T14:58:15;9.70;99.90
14095;DHT22;18096;48.142;16.290;2024-02-23T15:03:07;9.70;99.90
14095;DHT22;18096;48.142;16.290;2024-02-23T15:05:34;9.80;99.90
14095;DHT22;18096;48.142;16.290;2024-02-23T15:08:00;9.70;99.90
14095;DHT22;18096;48.142;16.290;2024-02-23T15:10:25;9.70;99.90
14095;DHT22;18096;48.142;16.290;2024-02-23T15:12:53;9.70;99.90
14095;DHT22;18096;48.142;16.290;2024-02-23T15:15:20;9.70;99.90
14095;DHT22;18096;48.142;16.290;2024-02-23T15:30:01;9.80;99.90
14095;DHT22;18096;48.142;16.290;2024-02-23T15:32:27;9.80;99.90
14095;DHT22;18096;48.142;16.290;2024-02-23T15:34:52;9.80;99.90
14095;DHT22;18096;48.142;16.290;2024-02-23T15:37:18;9.80;99.90
14095;DHT22;18096;48.142;16.290;2024-02-23T15:39:43;9.80;99.90
14095;DHT22;18096;48.142;16.290;2024-02-23T15:42:10;9.80;99.90
14095;DHT22;18096;48.142;16.290;2024-02-23T15:44:36;9.80;99.90
14095;DHT22;18096;48.142;16.290;2024-02-23T15:49:28;9.70;99.90
14095;DHT22;18096;48.142;16.290;2024-02-23T15:51:53;9.80;99.90
14095;DHT22;18096;48.142;16.290;2024-02-23T15:54:19;9.70;99.90
14095;DHT22;18096;48.142;16.290;2024-02-23T15:56:45;9.70;99.90
14095;DHT22;18096;48.142;16.290;2024-02-23T15:59:10;9.80;99.90
14095;DHT22;18096;48.142;16.290;2024-02-23T16:01:37;9.70;99.90
14095;DHT22;18096;48.142;16.290;2024-02-23T16:04:03;9.70;99.90
14095;DHT22;18096;48.142;16.290;2024-02-23T16:06:29;9.70;99.90
14095;DHT22;18096;48.142;16.290;2024-02-23T16:08:59;9.70;99.90
14095;DHT22;18096;48.142;16.290;2024-02-23T16:11:25;9.70;99.90
14095;DHT22;18096;48.142;16.290;2024-02-23T16:16:18;9.70;99.90
14095;DHT22;18096;48.142;16.290;2024-02-23T16:21:10;9.70;99.90
14095;DHT22;18096;48.142;16.290;2024-02-23T16:23:40;9.70;99.90
14095;DHT22;18096;48.142;16.290;2024-02-23T16:28:31;9.60;99.90
14095;DHT22;18096;48.142;16.290;2024-02-23T16:30:57;9.60;99.90
14095;DHT22;18096;48.142;16.290;2024-02-23T16:33:23;9.70;99.90
14095;DHT22;18096;48.142;16.290;2024-02-23T16:35:49;9.60;99.90
14095;DHT22;18096;48.142;16.290;2024-02-23T16:38:14;9.60;99.90
14095;DHT22;18096;48.142;16.290;2024-02-23T16:40:40;9.60;99.90
14095;DHT22;18096;48.142;16.290;2024-02-23T16:43:06;9.60;99.90
14095;DHT22;18096;48.142;16.290;2024-02-23T16:45:32;9.60;99.90
14095;DHT22;18096;48.142;16.290;2024-02-23T16:47:58;9.60;99.90
14095;DHT22;18096;48.142;16.290;2024-02-23T16:50:25;9.60;99.90
14095;DHT22;18096;48.142;16.290;2024-02-23T16:52:52;9.60;99.90
14095;DHT22;18096;48.142;16.290;2024-02-23T16:55:21;9.60;99.90
14095;DHT22;18096;48.142;16.290;2024-02-23T16:57:54;9.60;99.90
14095;DHT22;18096;48.142;16.290;2024-02-23T17:00:23;9.60;99.90
14095;DHT22;18096;48.142;16.290;2024-02-23T17:02:52;9.50;99.90
14095;DHT22;18096;48.142;16.290;2024-02-23T17:05:20;9.60;99.90
14095;DHT22;18096;48.142;16.290;2024-02-23T17:07:47;9.60;99.90
14095;DHT22;18096;48.142;16.290;2024-02-23T17:10:12;9.50;99.90
14095;DHT22;18096;48.142;16.290;2024-02-23T17:12:38;9.50;99.90
14095;DHT22;18096;48.142;16.290;2024-02-23T17:15:07;9.60;99.90
14095;DHT22;18096;48.142;16.290;2024-02-23T17:17:32;9.50;99.90
14095;DHT22;18096;48.142;16.290;2024-02-23T17:19:58;9.60;99.90
14095;DHT22;18096;48.142;16.290;2024-02-23T17:22:24;9.60;99.90
14095;DHT22;18096;48.142;16.290;2024-02-23T17:24:52;9.60;99.90
14095;DHT22;18096;48.142;16.290;2024-02-23T17:27:17;9.60;99.90
14095;DHT22;18096;48.142;16.290;2024-02-23T17:29:43;9.60;99.90
14095;DHT22;18096;48.142;16.290;2024-02-23T17:32:09;9.60;99.90
14095;DHT22;18096;48.142;16.290;2024-02-23T17:34:34;9.60;99.90
14095;DHT22;18096;48.142;16.290;2024-02-23T17:37:00;9.60;99.90
14095;DHT22;18096;48.142;16.290;2024-02-23T17:39:26;9.60;99.90
14095;DHT22;18096;48.142;16.290;2024-02-23T17:41:52;9.60;99.90
14095;DHT22;18096;48.142;16.290;2024-02-23T17:44:19;9.60;99.90
14095;DHT22;18096;48.142;16.290;2024-02-23T17:46:45;9.60;99.90
14095;DHT22;18096;48.142;16.290;2024-02-23T17:49:14;9.60;99.90
14095;DHT22;18096;48.142;16.290;2024-02-23T17:51:40;9.60;99.90
14095;DHT22;18096;48.142;16.290;2024-02-23T17:54:06;9.60;99.90
14095;DHT22;18096;48.142;16.290;2024-02-23T17:56:32;9.60;99.90
14095;DHT22;18096;48.142;16.290;2024-02-23T17:58:57;8.30;99.90
14095;DHT22;18096;48.142;16.290;2024-02-23T18:01:23;9.60;99.90